createdAt,value
2022-10-23T00:01:26.475Z,9.18
2022-10-23T00:03:58.593Z,9.20
2022-10-23T00:06:27.995Z,8.35
2022-10-23T00:08:56.934Z,8.05
2022-10-23T00:11:27.732Z,7.45
2022-10-23T00:13:57.704Z,7.43
2022-10-23T00:16:26.697Z,9.80
2022-10-23T00:18:56.508Z,7.60
2022-10-23T00:21:25.783Z,7.45
2022-10-23T00:23:54.241Z,7.53
2022-10-23T00:26:22.616Z,7.40
2022-10-23T00:28:53.122Z,8.43
2022-10-23T00:31:22.573Z,7.20
2022-10-23T00:33:51.732Z,7.35
2022-10-23T00:36:22.562Z,7.55
2022-10-23T00:38:52.129Z,7.13
2022-10-23T00:41:22.821Z,7.88
2022-10-23T00:44:01.024Z,6.95
2022-10-23T00:46:29.626Z,7.15
2022-10-23T00:48:58.383Z,7.05
2022-10-23T00:51:30.384Z,6.88
2022-10-23T00:54:22.841Z,7.32
2022-10-23T00:56:49.523Z,7.50
2022-10-23T00:59:17.973Z,7.03
2022-10-23T01:01:46.975Z,7.25
2022-10-23T01:04:15.549Z,6.60
2022-10-23T01:06:52.131Z,7.57
2022-10-23T01:09:25.552Z,6.63
2022-10-23T01:11:57.517Z,7.10
2022-10-23T01:14:31.127Z,6.63
2022-10-23T01:17:04.386Z,7.28
2022-10-23T01:19:45.794Z,6.43
2022-10-23T01:22:29.766Z,7.93
2022-10-23T01:24:59.981Z,6.07
2022-10-23T01:27:33.179Z,7.45
2022-10-23T01:30:07.112Z,6.88
2022-10-23T01:32:46.113Z,5.82
2022-10-23T01:35:17.577Z,6.75
2022-10-23T01:37:52.817Z,6.70
2022-10-23T01:40:25.105Z,6.30
2022-10-23T01:42:57.034Z,6.35
2022-10-23T01:45:31.792Z,6.43
2022-10-23T01:48:02.610Z,6.25
2022-10-23T01:50:31.923Z,7.10
2022-10-23T01:53:11.190Z,6.72
2022-10-23T01:58:17.012Z,6.50
2022-10-23T02:00:46.859Z,6.63
2022-10-23T02:03:17.748Z,6.82
2022-10-23T02:05:46.293Z,6.97
2022-10-23T02:08:15.064Z,6.35
2022-10-23T02:10:49.342Z,6.72
2022-10-23T02:13:26.766Z,6.88
2022-10-23T02:16:02.362Z,6.57
2022-10-23T02:18:38.137Z,7.03
2022-10-23T02:21:10.847Z,7.40
2022-10-23T02:23:41.877Z,7.47
2022-10-23T02:26:17.358Z,6.70
2022-10-23T02:28:57.992Z,6.97
2022-10-23T02:31:26.588Z,6.88
2022-10-23T02:33:55.184Z,7.35
2022-10-23T02:36:23.812Z,7.22
2022-10-23T02:38:52.547Z,6.28
2022-10-23T02:41:33.305Z,7.40
2022-10-23T02:44:19.711Z,7.30
2022-10-23T02:46:52.647Z,7.15
2022-10-23T02:49:24.844Z,8.27
2022-10-23T02:52:04.361Z,7.22
2022-10-23T02:54:51.994Z,7.60
2022-10-23T02:57:24.922Z,8.02
2022-10-23T03:00:02.743Z,7.75
2022-10-23T03:02:35.273Z,8.45
2022-10-23T03:05:05.144Z,7.20
2022-10-23T03:07:34.413Z,7.47
2022-10-23T03:10:08.718Z,7.95
2022-10-23T03:12:38.078Z,8.52
2022-10-23T03:15:10.151Z,8.18
2022-10-23T03:17:38.610Z,8.63
2022-10-23T03:20:07.985Z,7.80
2022-10-23T03:22:37.360Z,8.18
2022-10-23T03:25:06.681Z,8.43
2022-10-23T03:27:36.697Z,8.02
2022-10-23T03:30:10.367Z,8.05
2022-10-23T03:32:41.207Z,7.95
2022-10-23T03:35:10.105Z,8.07
2022-10-23T03:37:39.039Z,9.23
2022-10-23T03:40:08.702Z,8.55
2022-10-23T03:42:37.080Z,8.77
2022-10-23T03:45:06.138Z,8.55
2022-10-23T03:47:41.112Z,9.07
2022-10-23T03:50:10.936Z,8.57
2022-10-23T03:52:39.627Z,10.18
2022-10-23T03:55:09.314Z,9.98
2022-10-23T03:57:38.313Z,10.13
2022-10-23T04:00:08.273Z,9.73
2022-10-23T04:02:46.487Z,9.80
2022-10-23T04:05:15.466Z,9.85
2022-10-23T04:07:53.349Z,9.20
2022-10-23T04:10:21.844Z,10.15
2022-10-23T04:12:50.227Z,11.02
2022-10-23T04:15:18.749Z,10.43
2022-10-23T04:17:49.377Z,11.13
2022-10-23T04:20:17.928Z,10.63
2022-10-23T04:22:46.539Z,9.85
2022-10-23T04:25:16.689Z,9.80
2022-10-23T04:27:46.076Z,10.20
2022-10-23T04:30:15.048Z,10.25
2022-10-23T04:32:43.526Z,10.43
2022-10-23T04:35:13.333Z,9.93
2022-10-23T04:37:41.848Z,10.35
2022-10-23T04:40:11.135Z,10.27
2022-10-23T04:42:40.970Z,10.38
2022-10-23T04:45:09.873Z,11.23
2022-10-23T04:47:38.721Z,10.68
2022-10-23T04:50:08.213Z,10.48
2022-10-23T04:52:58.898Z,10.15
2022-10-23T04:55:50.524Z,10.75
2022-10-23T04:58:25.193Z,10.20
2022-10-23T05:00:54.434Z,10.43
2022-10-23T05:03:26.910Z,10.95
2022-10-23T05:05:56.746Z,10.35
2022-10-23T05:08:26.716Z,9.98
2022-10-23T05:11:13.694Z,10.93
2022-10-23T05:13:46.609Z,10.77
2022-10-23T05:16:27.755Z,10.10
2022-10-23T05:18:56.146Z,10.55
2022-10-23T05:21:26.728Z,9.68
2022-10-23T05:23:57.491Z,9.52
2022-10-23T05:26:26.421Z,9.80
2022-10-23T05:28:54.978Z,10.07
2022-10-23T05:31:25.842Z,10.13
2022-10-23T05:33:58.357Z,9.55
2022-10-23T05:36:27.052Z,9.38
2022-10-23T05:39:01.142Z,9.57
2022-10-23T05:41:29.559Z,9.50
2022-10-23T05:44:00.021Z,9.75
2022-10-23T05:46:46.782Z,10.00
2022-10-23T05:49:33.711Z,9.05
2022-10-23T05:52:34.464Z,9.25
2022-10-23T05:55:19.716Z,9.48
2022-10-23T05:58:07.400Z,9.35
2022-10-23T06:01:17.513Z,9.73
2022-10-23T06:04:06.859Z,9.75
2022-10-23T06:07:07.606Z,9.43
2022-10-23T06:09:36.071Z,9.50
2022-10-23T06:12:06.440Z,8.77
2022-10-23T06:14:35.380Z,9.77
2022-10-23T06:17:04.122Z,9.98
2022-10-23T06:19:40.871Z,9.70
2022-10-23T06:22:09.353Z,9.60
2022-10-23T06:24:59.818Z,9.43
2022-10-23T06:27:30.468Z,9.18
2022-10-23T06:29:58.824Z,9.32
2022-10-23T06:32:32.748Z,9.27
2022-10-23T06:35:11.197Z,8.98
2022-10-23T06:37:40.056Z,9.40
2022-10-23T06:40:19.744Z,8.98
2022-10-23T06:43:10.959Z,9.82
2022-10-23T06:46:02.277Z,9.30
2022-10-23T06:49:02.647Z,9.93
2022-10-23T06:51:34.766Z,9.23
2022-10-23T06:54:03.111Z,10.45
2022-10-23T06:56:54.593Z,9.70
2022-10-23T06:59:32.404Z,8.63
2022-10-23T07:02:01.855Z,9.73
2022-10-23T07:04:30.345Z,9.38
2022-10-23T07:06:59.632Z,9.93
2022-10-23T07:09:36.919Z,9.77
2022-10-23T07:12:13.995Z,9.57
2022-10-23T07:14:50.391Z,9.73
2022-10-23T07:17:18.889Z,9.30
2022-10-23T07:19:47.990Z,9.60
2022-10-23T07:22:17.265Z,10.35
2022-10-23T07:25:06.756Z,9.43
2022-10-23T07:27:41.126Z,10.52
2022-10-23T07:30:14.406Z,10.65
2022-10-23T07:32:50.671Z,10.57
2022-10-23T07:35:28.187Z,9.60
2022-10-23T07:38:04.831Z,10.07
2022-10-23T07:40:36.776Z,10.52
2022-10-23T07:43:05.991Z,10.52
2022-10-23T07:45:35.848Z,10.43
2022-10-23T07:48:11.750Z,10.73
2022-10-23T07:51:08.624Z,10.13
2022-10-23T07:53:41.645Z,10.82
2022-10-23T07:56:30.301Z,10.52
2022-10-23T07:59:17.716Z,10.32
2022-10-23T08:01:56.659Z,10.48
2022-10-23T08:04:38.929Z,10.93
2022-10-23T08:07:25.945Z,11.30
2022-10-23T08:09:57.503Z,10.15
2022-10-23T08:12:27.038Z,10.50
2022-10-23T08:14:56.558Z,9.77
2022-10-23T08:17:29.217Z,11.68
2022-10-23T08:20:14.801Z,10.85
2022-10-23T08:22:45.692Z,10.93
2022-10-23T08:25:24.698Z,10.75
2022-10-23T08:27:54.753Z,10.38
2022-10-23T08:30:23.418Z,10.82
2022-10-23T08:32:53.272Z,11.07
2022-10-23T08:35:22.210Z,11.45
2022-10-23T08:37:51.018Z,11.85
2022-10-23T08:40:23.426Z,11.05
2022-10-23T08:43:17.567Z,11.43
2022-10-23T08:46:05.117Z,11.95
2022-10-23T08:49:00.027Z,11.77
2022-10-23T08:52:04.694Z,12.27
2022-10-23T08:54:40.444Z,12.50
2022-10-23T08:57:14.146Z,12.88
2022-10-23T08:59:47.948Z,13.00
2022-10-23T09:02:19.789Z,12.87
2022-10-23T09:04:50.741Z,12.60
2022-10-23T09:07:29.731Z,14.00
2022-10-23T09:10:05.500Z,12.40
2022-10-23T09:12:33.916Z,13.82
2022-10-23T09:15:21.040Z,12.82
2022-10-23T09:17:51.170Z,13.13
2022-10-23T09:20:25.894Z,13.65
2022-10-23T09:22:59.604Z,14.40
2022-10-23T09:25:30.044Z,14.07
2022-10-23T09:28:02.916Z,12.98
2022-10-23T09:30:36.409Z,14.20
2022-10-23T09:33:15.779Z,14.70
2022-10-23T09:35:56.320Z,14.60
2022-10-23T09:38:29.284Z,14.57
2022-10-23T09:40:59.402Z,14.55
2022-10-23T09:43:28.828Z,14.80
2022-10-23T09:46:05.195Z,13.90
2022-10-23T09:48:42.476Z,14.43
2022-10-23T09:51:21.037Z,14.73
2022-10-23T09:53:51.718Z,14.15
2022-10-23T09:56:28.294Z,14.48
2022-10-23T09:58:58.672Z,14.73
2022-10-23T10:01:28.976Z,15.13
2022-10-23T10:04:06.707Z,16.48
2022-10-23T10:06:37.542Z,15.95
2022-10-23T10:09:09.877Z,14.70
2022-10-23T10:11:42.873Z,15.75
2022-10-23T10:14:28.557Z,14.50
2022-10-23T10:17:01.012Z,15.77
2022-10-23T10:19:41.101Z,15.30
2022-10-23T10:22:19.040Z,15.88
2022-10-23T10:24:50.977Z,15.90
2022-10-23T10:27:30.400Z,15.55
2022-10-23T10:30:06.074Z,15.13
2022-10-23T10:32:40.580Z,15.88
2022-10-23T10:35:21.673Z,15.68
2022-10-23T10:38:14.076Z,15.82
2022-10-23T10:40:44.199Z,15.30
2022-10-23T10:43:25.829Z,14.75
2022-10-23T10:45:59.139Z,15.35
2022-10-23T10:48:40.863Z,14.82
2022-10-23T10:51:46.070Z,14.32
2022-10-23T10:54:37.636Z,15.45
2022-10-23T10:57:12.908Z,14.88
2022-10-23T10:59:45.900Z,14.90
2022-10-23T11:02:25.346Z,14.95
2022-10-23T11:04:58.416Z,15.45
2022-10-23T11:07:35.635Z,14.23
2022-10-23T11:10:22.646Z,14.75
2022-10-23T11:12:51.472Z,14.57
2022-10-23T11:15:22.303Z,14.68
2022-10-23T11:17:52.469Z,15.57
2022-10-23T11:20:33.099Z,14.80
2022-10-23T11:23:09.940Z,15.80
2022-10-23T11:25:56.665Z,15.05
2022-10-23T11:28:35.539Z,15.30
2022-10-23T11:31:13.501Z,14.48
2022-10-23T11:34:02.953Z,14.30
2022-10-23T11:36:44.063Z,16.00
2022-10-23T11:39:30.860Z,14.40
2022-10-23T11:42:17.424Z,15.30
2022-10-23T11:44:47.001Z,15.13
2022-10-23T11:47:37.983Z,15.95
2022-10-23T11:50:27.017Z,16.98
2022-10-23T11:53:17.107Z,16.75
2022-10-23T11:56:06.862Z,15.43
2022-10-23T11:58:45.324Z,16.00
2022-10-23T12:01:30.084Z,13.90
2022-10-23T12:04:01.033Z,17.25
2022-10-23T12:06:32.342Z,15.48
2022-10-23T12:09:03.551Z,14.50
2022-10-23T12:11:44.069Z,14.35
2022-10-23T12:14:29.298Z,16.25
2022-10-23T12:16:57.742Z,14.27
2022-10-23T12:19:27.790Z,16.02
2022-10-23T12:21:59.174Z,15.35
2022-10-23T12:24:39.932Z,15.82
2022-10-23T12:27:18.165Z,15.32
2022-10-23T12:30:05.579Z,15.85
2022-10-23T12:32:48.243Z,14.88
2022-10-23T12:35:49.396Z,14.32
2022-10-23T12:38:20.094Z,14.43
2022-10-23T12:40:53.290Z,14.77
2022-10-23T12:43:27.955Z,14.48
2022-10-23T12:45:59.637Z,13.82
2022-10-23T12:48:28.099Z,13.95
2022-10-23T12:50:57.128Z,13.88
2022-10-23T12:53:26.279Z,15.23
2022-10-23T12:56:01.639Z,15.27
2022-10-23T12:58:32.169Z,15.50
2022-10-23T13:01:07.419Z,15.30
2022-10-23T13:03:36.889Z,15.68
2022-10-23T13:06:06.223Z,15.57
2022-10-23T13:08:36.229Z,15.55
2022-10-23T13:11:43.231Z,16.98
2022-10-23T13:14:15.559Z,16.20
2022-10-23T13:16:45.531Z,15.50
2022-10-23T13:19:26.127Z,15.00
2022-10-23T13:21:54.626Z,16.30
2022-10-23T13:24:24.160Z,15.48
2022-10-23T13:26:52.840Z,16.30
2022-10-23T13:29:22.983Z,15.85
2022-10-23T13:31:53.132Z,16.27
2022-10-23T13:34:31.595Z,16.10
2022-10-23T13:37:03.324Z,17.33
2022-10-23T13:39:33.331Z,17.42
2022-10-23T13:42:07.341Z,17.73
2022-10-23T13:44:37.429Z,16.23
2022-10-23T13:47:07.622Z,16.88
2022-10-23T13:49:36.102Z,17.23
2022-10-23T13:52:04.631Z,17.95
2022-10-23T13:54:33.189Z,16.67
2022-10-23T13:57:01.677Z,16.63
2022-10-23T13:59:30.179Z,17.73
2022-10-23T14:01:59.354Z,16.92
2022-10-23T14:04:29.342Z,16.92
2022-10-23T14:06:58.741Z,17.50
2022-10-23T14:09:27.303Z,17.25
2022-10-23T14:11:55.778Z,16.70
2022-10-23T14:14:24.308Z,17.77
2022-10-23T14:16:53.394Z,17.17
2022-10-23T14:19:21.928Z,16.55
2022-10-23T14:21:51.778Z,17.38
2022-10-23T14:24:20.247Z,17.42
2022-10-23T14:26:48.695Z,17.42
2022-10-23T14:29:23.060Z,17.67
2022-10-23T14:31:52.595Z,19.65
2022-10-23T14:34:21.095Z,17.73
2022-10-23T14:39:25.124Z,16.92
2022-10-23T14:41:53.639Z,16.83
2022-10-23T14:44:22.087Z,17.38
2022-10-23T14:46:50.584Z,16.70
2022-10-23T14:49:19.156Z,17.05
2022-10-23T14:51:48.665Z,16.33
2022-10-23T14:54:19.286Z,16.92
2022-10-23T14:56:47.756Z,17.00
2022-10-23T14:59:16.327Z,16.52
2022-10-23T15:01:48.431Z,15.88
2022-10-23T15:04:17.177Z,16.48
2022-10-23T15:06:47.282Z,17.17
2022-10-23T15:09:16.492Z,16.00
2022-10-23T15:11:46.372Z,16.08
2022-10-23T15:14:15.030Z,17.98
2022-10-23T15:16:43.469Z,16.08
2022-10-23T15:19:17.068Z,17.92
2022-10-23T15:21:48.044Z,16.95
2022-10-23T15:24:16.600Z,16.58
2022-10-23T15:26:47.016Z,16.63
2022-10-23T15:29:16.047Z,16.08
2022-10-23T15:31:50.248Z,16.90
2022-10-23T15:34:20.345Z,16.50
2022-10-23T15:36:49.328Z,16.77
2022-10-23T15:39:19.394Z,15.90
2022-10-23T15:41:56.069Z,16.05
2022-10-23T15:44:26.075Z,17.20
2022-10-23T15:46:57.070Z,17.25
2022-10-23T15:49:26.217Z,17.52
2022-10-23T15:51:54.820Z,16.80
2022-10-23T15:54:23.855Z,18.27
2022-10-23T15:56:55.567Z,18.35
2022-10-23T15:59:26.029Z,17.75
2022-10-23T16:01:55.751Z,18.20
2022-10-23T16:04:24.553Z,17.63
2022-10-23T16:06:53.119Z,16.85
2022-10-23T16:09:21.653Z,17.20
2022-10-23T16:11:50.178Z,16.73
2022-10-23T16:14:20.238Z,17.42
2022-10-23T16:16:48.810Z,16.58
2022-10-23T16:19:17.336Z,17.48
2022-10-23T16:21:45.772Z,15.90
2022-10-23T16:24:14.309Z,17.30
2022-10-23T16:26:42.805Z,16.80
2022-10-23T16:29:12.457Z,16.73
2022-10-23T16:31:42.348Z,16.92
2022-10-23T16:34:11.945Z,16.63
2022-10-23T16:36:40.486Z,16.50
2022-10-23T16:39:10.212Z,15.40
2022-10-23T16:41:57.263Z,16.35
2022-10-23T16:44:30.731Z,16.55
2022-10-23T16:47:02.292Z,16.77
2022-10-23T16:49:32.322Z,15.15
2022-10-23T16:52:00.803Z,16.17
2022-10-23T16:54:29.256Z,15.18
2022-10-23T16:56:58.774Z,16.50
2022-10-23T16:59:27.322Z,17.02
2022-10-23T17:01:55.834Z,14.27
2022-10-23T17:04:25.772Z,15.15
2022-10-23T17:06:54.228Z,15.15
2022-10-23T17:09:23.752Z,14.88
2022-10-23T17:11:53.942Z,13.95
2022-10-23T17:14:25.191Z,13.73
2022-10-23T17:16:55.103Z,13.52
2022-10-23T17:19:47.019Z,13.30
2022-10-23T17:22:16.078Z,12.35
2022-10-23T17:24:47.448Z,13.35
2022-10-23T17:27:18.943Z,12.80
2022-10-23T17:29:47.454Z,12.70
2022-10-23T17:32:15.936Z,11.90
2022-10-23T17:34:46.696Z,12.18
2022-10-23T17:37:15.055Z,11.35
2022-10-23T17:39:43.559Z,11.25
2022-10-23T17:42:12.936Z,11.38
2022-10-23T17:44:41.359Z,10.30
2022-10-23T17:47:09.867Z,10.13
2022-10-23T17:49:39.628Z,11.10
2022-10-23T17:52:14.420Z,11.55
2022-10-23T17:54:43.410Z,10.18
2022-10-23T17:57:11.832Z,9.88
2022-10-23T17:59:40.243Z,9.82
2022-10-23T18:02:13.119Z,10.00
2022-10-23T18:04:41.700Z,10.60
2022-10-23T18:07:11.573Z,10.02
2022-10-23T18:09:40.113Z,10.27
2022-10-23T18:12:08.692Z,11.52
2022-10-23T18:14:37.834Z,10.45
2022-10-23T18:17:06.244Z,10.05
2022-10-23T18:19:34.738Z,9.63
2022-10-23T18:22:03.127Z,9.27
2022-10-23T18:24:33.010Z,9.60
2022-10-23T18:27:01.426Z,9.25
2022-10-23T18:29:30.954Z,9.43
2022-10-23T18:31:59.814Z,8.93
2022-10-23T18:34:28.367Z,9.32
2022-10-23T18:36:56.911Z,8.65
2022-10-23T18:39:27.151Z,9.07
2022-10-23T18:41:58.080Z,8.82
2022-10-23T18:44:29.213Z,8.65
2022-10-23T18:46:59.076Z,8.55
2022-10-23T18:49:27.907Z,8.05
2022-10-23T18:51:56.506Z,8.40
2022-10-23T18:54:24.947Z,8.38
2022-10-23T18:56:53.666Z,8.57
2022-10-23T18:59:24.315Z,8.23
2022-10-23T19:01:52.872Z,7.97
2022-10-23T19:04:21.440Z,7.72
2022-10-23T19:06:51.040Z,7.38
2022-10-23T19:09:19.608Z,7.03
2022-10-23T19:11:48.222Z,7.63
2022-10-23T19:14:16.640Z,6.60
2022-10-23T19:16:54.358Z,7.50
2022-10-23T19:19:24.919Z,7.05
2022-10-23T19:21:53.749Z,6.93
2022-10-23T19:24:25.563Z,7.20
2022-10-23T19:26:54.046Z,6.55
2022-10-23T19:29:23.916Z,6.57
2022-10-23T19:31:54.441Z,6.53
2022-10-23T19:34:25.322Z,6.72
2022-10-23T19:36:54.832Z,6.35
2022-10-23T19:39:26.730Z,6.70
2022-10-23T19:42:05.241Z,6.90
2022-10-23T19:44:34.069Z,6.53
2022-10-23T19:47:04.339Z,7.28
2022-10-23T19:49:32.813Z,7.50
2022-10-23T19:52:01.203Z,7.70
2022-10-23T19:54:30.282Z,6.97
2022-10-23T19:56:58.914Z,7.88
2022-10-23T19:59:27.472Z,7.57
2022-10-23T20:01:56.106Z,7.60
2022-10-23T20:04:26.340Z,7.38
2022-10-23T20:06:54.901Z,8.15
2022-10-23T20:09:24.055Z,8.32
2022-10-23T20:11:55.213Z,8.88
2022-10-23T20:14:23.686Z,8.38
2022-10-23T20:16:55.682Z,7.55
2022-10-23T20:19:25.959Z,8.35
2022-10-23T20:21:54.497Z,9.27
2022-10-23T20:24:23.171Z,8.70
2022-10-23T20:26:55.489Z,8.52
2022-10-23T20:29:24.820Z,9.43
2022-10-23T20:31:53.747Z,7.97
2022-10-23T20:34:22.249Z,9.10
2022-10-23T20:36:52.143Z,8.57
2022-10-23T20:39:25.576Z,8.68
2022-10-23T20:41:55.334Z,8.80
2022-10-23T20:44:24.759Z,9.48
2022-10-23T20:46:53.522Z,11.13
2022-10-23T20:49:22.296Z,10.30
2022-10-23T20:51:55.215Z,12.02
2022-10-23T20:54:24.568Z,9.98
2022-10-23T20:56:52.987Z,11.27
2022-10-23T20:59:21.543Z,11.57
2022-10-23T21:01:53.239Z,11.18
2022-10-23T21:04:26.583Z,11.27
2022-10-23T21:07:09.596Z,10.82
2022-10-23T21:09:39.029Z,9.32
2022-10-23T21:12:08.018Z,10.32
2022-10-23T21:14:36.591Z,9.60
2022-10-23T21:17:05.943Z,8.75
2022-10-23T21:19:34.427Z,9.77
2022-10-23T21:22:04.278Z,10.18
2022-10-23T21:24:32.811Z,9.93
2022-10-23T21:27:01.323Z,9.63
2022-10-23T21:29:29.849Z,9.98
2022-10-23T21:32:01.189Z,9.93
2022-10-23T21:34:31.341Z,9.48
2022-10-23T21:37:12.502Z,9.85
2022-10-23T21:39:43.774Z,9.75
2022-10-23T21:42:12.608Z,9.27
2022-10-23T21:44:41.144Z,8.40
2022-10-23T21:47:09.556Z,9.18
2022-10-23T21:49:38.087Z,9.50
2022-10-23T21:52:06.613Z,9.65
2022-10-23T21:54:35.019Z,9.73
2022-10-23T21:57:04.934Z,8.82
2022-10-23T21:59:36.085Z,10.13
2022-10-23T22:02:05.122Z,10.70
2022-10-23T22:04:33.645Z,9.05
2022-10-23T22:07:02.901Z,9.65
2022-10-23T22:09:32.376Z,9.20
2022-10-23T22:12:01.343Z,9.13
2022-10-23T22:14:31.251Z,8.38
2022-10-23T22:16:59.702Z,9.32
2022-10-23T22:19:28.028Z,9.50
2022-10-23T22:21:59.301Z,9.30
2022-10-23T22:24:27.724Z,9.82
2022-10-23T22:26:57.280Z,9.38
2022-10-23T22:29:27.580Z,10.00
2022-10-23T22:31:57.251Z,9.75
2022-10-23T22:34:48.308Z,8.85
2022-10-23T22:37:15.772Z,9.43
2022-10-23T22:39:44.194Z,7.95
2022-10-23T22:42:12.590Z,8.75
2022-10-23T22:44:40.946Z,8.88
2022-10-23T22:47:10.620Z,8.65
2022-10-23T22:49:39.549Z,8.80
2022-10-23T22:52:07.836Z,9.23
2022-10-23T22:54:36.145Z,8.73
2022-10-23T22:57:04.572Z,8.15
2022-10-23T22:59:32.913Z,7.38
2022-10-23T23:02:01.219Z,7.55
2022-10-23T23:04:38.924Z,8.43
2022-10-23T23:07:08.537Z,7.25
2022-10-23T23:09:38.832Z,7.00
2022-10-23T23:12:07.713Z,7.13
2022-10-23T23:14:36.014Z,8.00
2022-10-23T23:17:04.413Z,8.07
2022-10-23T23:19:34.383Z,6.93
2022-10-23T23:22:03.672Z,7.78
2022-10-23T23:24:32.288Z,8.27
2022-10-23T23:27:00.646Z,8.13
2022-10-23T23:29:29.765Z,7.60
2022-10-23T23:31:58.230Z,7.28
2022-10-23T23:34:26.544Z,7.70
2022-10-23T23:36:56.278Z,7.20
2022-10-23T23:39:26.196Z,7.18
2022-10-23T23:41:54.531Z,7.50
2022-10-23T23:44:23.029Z,6.60
2022-10-23T23:46:51.322Z,7.13
2022-10-23T23:49:19.622Z,7.25
2022-10-23T23:51:47.964Z,5.80
2022-10-23T23:54:17.838Z,6.70
2022-10-23T23:56:46.111Z,7.35
2022-10-23T23:59:14.360Z,6.60
